Weather at Anduki Airport

Public forecast

Using degrees Celsius for public forecast. Weather courtesy of forecast.io.

Closest aviation weather report (METAR) to Anduki Airport

Closest report is Miri Airport, 30.1 nm (55.7 km) SW.

2024/03/03 08:00 (retrieved 40 minutes ago)

WBGR 030800Z 32008KT 9999 SCT016 31/25 Q1007

Closest aviation forecast (TAF) to Anduki Airport

Closest forecast is Miri Airport, 30.1 nm (55.7 km) SW.

2024/03/03 06:00 (retrieved 3 hours ago)

TAF WBGR 030500Z 0306/0406 07005KT 9999 FEW016